sensor_id;sensor_type;location;lat;lon;timestamp;P1;durP1;ratioP1;P2;durP2;ratioP2
3769;SDS011;1900;48.890;9.190;2023-12-20T00:00:50;3.33;;;2.43;;
3769;SDS011;1900;48.890;9.190;2023-12-20T00:03:16;3.97;;;2.90;;
3769;SDS011;1900;48.890;9.190;2023-12-20T00:05:42;3.70;;;2.53;;
3769;SDS011;1900;48.890;9.190;2023-12-20T00:08:08;6.93;;;3.20;;
3769;SDS011;1900;48.890;9.190;2023-12-20T00:10:34;6.00;;;2.93;;
3769;SDS011;1900;48.890;9.190;2023-12-20T00:13:00;3.67;;;3.10;;
3769;SDS011;1900;48.890;9.190;2023-12-20T00:15:26;3.87;;;2.87;;
3769;SDS011;1900;48.890;9.190;2023-12-20T00:17:52;5.70;;;2.70;;
3769;SDS011;1900;48.890;9.190;2023-12-20T00:20:17;3.90;;;2.90;;
3769;SDS011;1900;48.890;9.190;2023-12-20T00:22:43;3.40;;;2.90;;
3769;SDS011;1900;48.890;9.190;2023-12-20T00:25:09;5.03;;;3.17;;
3769;SDS011;1900;48.890;9.190;2023-12-20T00:27:35;4.07;;;2.93;;
3769;SDS011;1900;48.890;9.190;2023-12-20T00:30:00;3.63;;;2.70;;
3769;SDS011;1900;48.890;9.190;2023-12-20T00:32:26;2.60;;;2.40;;
3769;SDS011;1900;48.890;9.190;2023-12-20T00:34:52;3.30;;;2.10;;
3769;SDS011;1900;48.890;9.190;2023-12-20T00:37:17;3.37;;;2.60;;
3769;SDS011;1900;48.890;9.190;2023-12-20T00:39:43;3.40;;;2.40;;
3769;SDS011;1900;48.890;9.190;2023-12-20T00:42:09;2.80;;;2.40;;
3769;SDS011;1900;48.890;9.190;2023-12-20T00:44:35;4.60;;;2.70;;
3769;SDS011;1900;48.890;9.190;2023-12-20T00:47:01;3.40;;;2.30;;
3769;SDS011;1900;48.890;9.190;2023-12-20T00:49:27;5.77;;;2.57;;
3769;SDS011;1900;48.890;9.190;2023-12-20T00:51:52;2.90;;;2.23;;
3769;SDS011;1900;48.890;9.190;2023-12-20T00:54:18;4.23;;;2.87;;
3769;SDS011;1900;48.890;9.190;2023-12-20T00:56:44;3.43;;;2.40;;
3769;SDS011;1900;48.890;9.190;2023-12-20T00:59:10;4.90;;;2.40;;
3769;SDS011;1900;48.890;9.190;2023-12-20T01:01:35;3.30;;;2.50;;
3769;SDS011;1900;48.890;9.190;2023-12-20T01:04:01;3.00;;;2.63;;
3769;SDS011;1900;48.890;9.190;2023-12-20T01:06:27;2.93;;;2.60;;
3769;SDS011;1900;48.890;9.190;2023-12-20T01:08:53;3.07;;;2.70;;
3769;SDS011;1900;48.890;9.190;2023-12-20T01:11:19;3.93;;;2.37;;
3769;SDS011;1900;48.890;9.190;2023-12-20T01:13:45;2.60;;;2.30;;
3769;SDS011;1900;48.890;9.190;2023-12-20T01:16:10;3.33;;;2.80;;
3769;SDS011;1900;48.890;9.190;2023-12-20T01:18:37;4.57;;;2.73;;
3769;SDS011;1900;48.890;9.190;2023-12-20T01:21:04;4.77;;;2.50;;
3769;SDS011;1900;48.890;9.190;2023-12-20T01:23:30;2.60;;;2.40;;
3769;SDS011;1900;48.890;9.190;2023-12-20T01:25:57;3.90;;;2.80;;
3769;SDS011;1900;48.890;9.190;2023-12-20T01:28:25;3.50;;;2.57;;
3769;SDS011;1900;48.890;9.190;2023-12-20T01:30:53;2.87;;;2.20;;
3769;SDS011;1900;48.890;9.190;2023-12-20T01:33:19;2.30;;;1.97;;
3769;SDS011;1900;48.890;9.190;2023-12-20T01:35:45;3.00;;;2.00;;
3769;SDS011;1900;48.890;9.190;2023-12-20T01:38:11;2.80;;;2.43;;
3769;SDS011;1900;48.890;9.190;2023-12-20T01:40:36;3.20;;;2.87;;
3769;SDS011;1900;48.890;9.190;2023-12-20T01:43:06;4.07;;;3.00;;
3769;SDS011;1900;48.890;9.190;2023-12-20T01:45:33;2.77;;;2.30;;
3769;SDS011;1900;48.890;9.190;2023-12-20T01:48:02;2.63;;;2.43;;
3769;SDS011;1900;48.890;9.190;2023-12-20T01:50:30;5.03;;;2.30;;
3769;SDS011;1900;48.890;9.190;2023-12-20T01:52:57;2.67;;;2.37;;
3769;SDS011;1900;48.890;9.190;2023-12-20T01:55:26;3.10;;;2.80;;
3769;SDS011;1900;48.890;9.190;2023-12-20T01:57:54;3.40;;;2.60;;
3769;SDS011;1900;48.890;9.190;2023-12-20T02:00:22;2.50;;;2.30;;
3769;SDS011;1900;48.890;9.190;2023-12-20T02:02:48;3.00;;;2.50;;
3769;SDS011;1900;48.890;9.190;2023-12-20T02:05:17;4.20;;;2.80;;
3769;SDS011;1900;48.890;9.190;2023-12-20T02:07:43;3.10;;;2.40;;
3769;SDS011;1900;48.890;9.190;2023-12-20T02:10:09;10.23;;;2.77;;
3769;SDS011;1900;48.890;9.190;2023-12-20T02:12:35;8.30;;;2.80;;
3769;SDS011;1900;48.890;9.190;2023-12-20T02:15:01;4.40;;;2.90;;
3769;SDS011;1900;48.890;9.190;2023-12-20T02:17:27;2.40;;;2.17;;
3769;SDS011;1900;48.890;9.190;2023-12-20T02:19:53;4.93;;;2.40;;
3769;SDS011;1900;48.890;9.190;2023-12-20T02:22:18;2.70;;;2.50;;
3769;SDS011;1900;48.890;9.190;2023-12-20T02:24:44;3.50;;;2.40;;
3769;SDS011;1900;48.890;9.190;2023-12-20T02:27:10;2.90;;;2.07;;
3769;SDS011;1900;48.890;9.190;2023-12-20T02:29:37;2.47;;;2.27;;
3769;SDS011;1900;48.890;9.190;2023-12-20T02:32:03;1.60;;;1.50;;
3769;SDS011;1900;48.890;9.190;2023-12-20T02:34:29;2.90;;;1.80;;
3769;SDS011;1900;48.890;9.190;2023-12-20T02:36:55;1.77;;;1.67;;
3769;SDS011;1900;48.890;9.190;2023-12-20T02:39:22;3.37;;;2.23;;
3769;SDS011;1900;48.890;9.190;2023-12-20T02:41:48;2.27;;;1.60;;
3769;SDS011;1900;48.890;9.190;2023-12-20T02:44:14;1.70;;;1.50;;
3769;SDS011;1900;48.890;9.190;2023-12-20T02:46:40;1.63;;;1.53;;
3769;SDS011;1900;48.890;9.190;2023-12-20T02:49:07;1.50;;;1.40;;
3769;SDS011;1900;48.890;9.190;2023-12-20T02:51:32;1.37;;;1.27;;
3769;SDS011;1900;48.890;9.190;2023-12-20T02:53:58;1.93;;;1.47;;
3769;SDS011;1900;48.890;9.190;2023-12-20T02:56:24;1.27;;;1.17;;
3769;SDS011;1900;48.890;9.190;2023-12-20T02:58:50;1.60;;;1.27;;
3769;SDS011;1900;48.890;9.190;2023-12-20T03:01:15;1.30;;;1.20;;
3769;SDS011;1900;48.890;9.190;2023-12-20T03:03:41;1.30;;;1.20;;
3769;SDS011;1900;48.890;9.190;2023-12-20T03:06:06;2.17;;;1.40;;
3769;SDS011;1900;48.890;9.190;2023-12-20T03:08:32;1.20;;;1.10;;
3769;SDS011;1900;48.890;9.190;2023-12-20T03:10:59;1.17;;;1.07;;
3769;SDS011;1900;48.890;9.190;2023-12-20T03:13:24;1.00;;;1.00;;
3769;SDS011;1900;48.890;9.190;2023-12-20T03:15:50;1.10;;;1.00;;
3769;SDS011;1900;48.890;9.190;2023-12-20T03:18:16;4.57;;;1.27;;
3769;SDS011;1900;48.890;9.190;2023-12-20T03:20:43;1.20;;;1.10;;
3769;SDS011;1900;48.890;9.190;2023-12-20T03:23:09;1.20;;;1.10;;
3769;SDS011;1900;48.890;9.190;2023-12-20T03:25:34;2.60;;;1.40;;
3769;SDS011;1900;48.890;9.190;2023-12-20T03:28:00;1.47;;;1.20;;
3769;SDS011;1900;48.890;9.190;2023-12-20T03:30:26;1.20;;;1.10;;
3769;SDS011;1900;48.890;9.190;2023-12-20T03:32:52;1.10;;;1.00;;
3769;SDS011;1900;48.890;9.190;2023-12-20T03:35:17;1.40;;;1.30;;
3769;SDS011;1900;48.890;9.190;2023-12-20T03:37:43;1.20;;;1.10;;
3769;SDS011;1900;48.890;9.190;2023-12-20T03:40:09;1.20;;;1.10;;
3769;SDS011;1900;48.890;9.190;2023-12-20T03:42:35;1.30;;;1.20;;
3769;SDS011;1900;48.890;9.190;2023-12-20T03:45:01;2.40;;;1.20;;
3769;SDS011;1900;48.890;9.190;2023-12-20T03:47:26;1.40;;;1.20;;
3769;SDS011;1900;48.890;9.190;2023-12-20T03:49:52;1.23;;;1.10;;
3769;SDS011;1900;48.890;9.190;2023-12-20T03:52:18;1.13;;;1.10;;
3769;SDS011;1900;48.890;9.190;2023-12-20T03:54:44;1.20;;;1.10;;
3769;SDS011;1900;48.890;9.190;2023-12-20T03:57:10;1.30;;;1.20;;
3769;SDS011;1900;48.890;9.190;2023-12-20T03:59:36;1.50;;;1.30;;
3769;SDS011;1900;48.890;9.190;2023-12-20T04:02:02;2.47;;;1.23;;
3769;SDS011;1900;48.890;9.190;2023-12-20T04:04:29;1.33;;;1.23;;
3769;SDS011;1900;48.890;9.190;2023-12-20T04:06:55;1.73;;;1.40;;
3769;SDS011;1900;48.890;9.190;2023-12-20T04:09:20;1.30;;;1.20;;
3769;SDS011;1900;48.890;9.190;2023-12-20T04:11:46;1.30;;;1.20;;
3769;SDS011;1900;48.890;9.190;2023-12-20T04:14:12;1.30;;;1.10;;
3769;SDS011;1900;48.890;9.190;2023-12-20T04:16:38;1.40;;;1.30;;
3769;SDS011;1900;48.890;9.190;2023-12-20T04:19:04;2.10;;;1.40;;
3769;SDS011;1900;48.890;9.190;2023-12-20T04:21:30;2.23;;;1.37;;
3769;SDS011;1900;48.890;9.190;2023-12-20T04:23:56;1.93;;;1.63;;
3769;SDS011;1900;48.890;9.190;2023-12-20T04:26:22;1.87;;;1.60;;
3769;SDS011;1900;48.890;9.190;2023-12-20T04:28:47;2.50;;;1.40;;
3769;SDS011;1900;48.890;9.190;2023-12-20T04:31:13;1.40;;;1.30;;
3769;SDS011;1900;48.890;9.190;2023-12-20T04:33:39;1.63;;;1.30;;
3769;SDS011;1900;48.890;9.190;2023-12-20T04:36:05;2.30;;;1.40;;
3769;SDS011;1900;48.890;9.190;2023-12-20T04:38:31;2.27;;;1.67;;
3769;SDS011;1900;48.890;9.190;2023-12-20T04:40:56;1.60;;;1.50;;
3769;SDS011;1900;48.890;9.190;2023-12-20T04:43:22;2.00;;;1.40;;
3769;SDS011;1900;48.890;9.190;2023-12-20T04:45:48;1.50;;;1.30;;
3769;SDS011;1900;48.890;9.190;2023-12-20T04:48:14;1.50;;;1.40;;
3769;SDS011;1900;48.890;9.190;2023-12-20T04:50:39;1.33;;;1.23;;
3769;SDS011;1900;48.890;9.190;2023-12-20T04:53:05;1.77;;;1.10;;
3769;SDS011;1900;48.890;9.190;2023-12-20T04:55:31;1.40;;;1.30;;
3769;SDS011;1900;48.890;9.190;2023-12-20T04:57:56;1.60;;;1.50;;
3769;SDS011;1900;48.890;9.190;2023-12-20T05:00:22;1.47;;;1.30;;
3769;SDS011;1900;48.890;9.190;2023-12-20T05:02:51;1.60;;;1.50;;
3769;SDS011;1900;48.890;9.190;2023-12-20T05:05:17;1.80;;;1.30;;
3769;SDS011;1900;48.890;9.190;2023-12-20T05:07:43;2.80;;;1.20;;
3769;SDS011;1900;48.890;9.190;2023-12-20T05:10:09;6.67;;;2.07;;
3769;SDS011;1900;48.890;9.190;2023-12-20T05:12:35;1.20;;;1.10;;
3769;SDS011;1900;48.890;9.190;2023-12-20T05:15:01;1.47;;;1.20;;
3769;SDS011;1900;48.890;9.190;2023-12-20T05:17:26;1.40;;;1.30;;
3769;SDS011;1900;48.890;9.190;2023-12-20T05:19:52;1.40;;;1.20;;
3769;SDS011;1900;48.890;9.190;2023-12-20T05:22:19;1.50;;;1.40;;
3769;SDS011;1900;48.890;9.190;2023-12-20T05:24:45;2.13;;;1.30;;
3769;SDS011;1900;48.890;9.190;2023-12-20T05:27:11;2.80;;;1.30;;
3769;SDS011;1900;48.890;9.190;2023-12-20T05:29:37;2.40;;;1.70;;
3769;SDS011;1900;48.890;9.190;2023-12-20T05:32:03;2.10;;;1.90;;
3769;SDS011;1900;48.890;9.190;2023-12-20T05:34:32;1.70;;;1.60;;
3769;SDS011;1900;48.890;9.190;2023-12-20T05:36:57;1.80;;;1.70;;
3769;SDS011;1900;48.890;9.190;2023-12-20T05:39:23;2.00;;;1.90;;
3769;SDS011;1900;48.890;9.190;2023-12-20T05:41:49;7.93;;;1.93;;
3769;SDS011;1900;48.890;9.190;2023-12-20T05:44:15;1.70;;;1.60;;
3769;SDS011;1900;48.890;9.190;2023-12-20T05:46:40;1.93;;;1.70;;
3769;SDS011;1900;48.890;9.190;2023-12-20T05:49:06;3.33;;;1.97;;
3769;SDS011;1900;48.890;9.190;2023-12-20T05:51:32;6.50;;;1.90;;
3769;SDS011;1900;48.890;9.190;2023-12-20T05:53:58;2.83;;;1.60;;
3769;SDS011;1900;48.890;9.190;2023-12-20T05:56:24;2.17;;;1.93;;
3769;SDS011;1900;48.890;9.190;2023-12-20T05:58:50;1.80;;;1.70;;
3769;SDS011;1900;48.890;9.190;2023-12-20T06:01:16;1.80;;;1.70;;
3769;SDS011;1900;48.890;9.190;2023-12-20T06:03:42;3.57;;;1.97;;
3769;SDS011;1900;48.890;9.190;2023-12-20T06:06:08;2.13;;;1.93;;
3769;SDS011;1900;48.890;9.190;2023-12-20T06:08:35;1.80;;;1.70;;
3769;SDS011;1900;48.890;9.190;2023-12-20T06:11:01;2.07;;;1.90;;
3769;SDS011;1900;48.890;9.190;2023-12-20T06:13:27;2.67;;;1.90;;
3769;SDS011;1900;48.890;9.190;2023-12-20T06:15:56;2.10;;;1.80;;
3769;SDS011;1900;48.890;9.190;2023-12-20T06:18:22;1.73;;;1.63;;
3769;SDS011;1900;48.890;9.190;2023-12-20T06:20:49;2.50;;;2.00;;
3769;SDS011;1900;48.890;9.190;2023-12-20T06:23:15;2.07;;;1.80;;
3769;SDS011;1900;48.890;9.190;2023-12-20T06:25:40;3.23;;;1.80;;
3769;SDS011;1900;48.890;9.190;2023-12-20T06:28:06;2.40;;;2.20;;
3769;SDS011;1900;48.890;9.190;2023-12-20T06:30:32;2.20;;;2.00;;
3769;SDS011;1900;48.890;9.190;2023-12-20T06:32:58;3.00;;;1.70;;
3769;SDS011;1900;48.890;9.190;2023-12-20T06:35:24;3.73;;;2.23;;
3769;SDS011;1900;48.890;9.190;2023-12-20T06:37:50;3.37;;;2.30;;
3769;SDS011;1900;48.890;9.190;2023-12-20T06:40:16;3.20;;;2.10;;
3769;SDS011;1900;48.890;9.190;2023-12-20T06:42:42;2.87;;;2.40;;
3769;SDS011;1900;48.890;9.190;2023-12-20T06:45:09;2.03;;;1.83;;
3769;SDS011;1900;48.890;9.190;2023-12-20T06:47:37;3.37;;;1.87;;
3769;SDS011;1900;48.890;9.190;2023-12-20T06:50:03;3.00;;;2.10;;
3769;SDS011;1900;48.890;9.190;2023-12-20T06:52:30;2.43;;;2.10;;
3769;SDS011;1900;48.890;9.190;2023-12-20T06:54:56;4.70;;;2.20;;
3769;SDS011;1900;48.890;9.190;2023-12-20T06:57:22;2.80;;;2.50;;
3769;SDS011;1900;48.890;9.190;2023-12-20T06:59:48;3.23;;;2.50;;
3769;SDS011;1900;48.890;9.190;2023-12-20T07:02:14;5.50;;;2.40;;
3769;SDS011;1900;48.890;9.190;2023-12-20T07:04:41;3.50;;;2.50;;
3769;SDS011;1900;48.890;9.190;2023-12-20T07:07:06;4.10;;;2.97;;
3769;SDS011;1900;48.890;9.190;2023-12-20T07:09:33;4.90;;;2.90;;
3769;SDS011;1900;48.890;9.190;2023-12-20T07:11:59;3.20;;;2.90;;
3769;SDS011;1900;48.890;9.190;2023-12-20T07:14:25;3.30;;;3.00;;
3769;SDS011;1900;48.890;9.190;2023-12-20T07:16:51;4.87;;;3.50;;
3769;SDS011;1900;48.890;9.190;2023-12-20T07:19:16;4.03;;;3.30;;
3769;SDS011;1900;48.890;9.190;2023-12-20T07:21:43;7.80;;;5.03;;
3769;SDS011;1900;48.890;9.190;2023-12-20T07:24:09;4.77;;;3.03;;
3769;SDS011;1900;48.890;9.190;2023-12-20T07:26:34;4.53;;;3.30;;
3769;SDS011;1900;48.890;9.190;2023-12-20T07:29:03;3.80;;;3.13;;
3769;SDS011;1900;48.890;9.190;2023-12-20T07:31:29;3.40;;;3.10;;
3769;SDS011;1900;48.890;9.190;2023-12-20T07:33:56;3.73;;;2.97;;
3769;SDS011;1900;48.890;9.190;2023-12-20T07:36:21;6.67;;;3.67;;
3769;SDS011;1900;48.890;9.190;2023-12-20T07:38:47;3.90;;;3.47;;
3769;SDS011;1900;48.890;9.190;2023-12-20T07:41:13;4.03;;;3.57;;
3769;SDS011;1900;48.890;9.190;2023-12-20T07:43:41;3.47;;;3.17;;
3769;SDS011;1900;48.890;9.190;2023-12-20T07:46:10;6.57;;;2.90;;
3769;SDS011;1900;48.890;9.190;2023-12-20T07:48:36;3.03;;;2.80;;
3769;SDS011;1900;48.890;9.190;2023-12-20T07:51:02;3.70;;;3.00;;
3769;SDS011;1900;48.890;9.190;2023-12-20T07:53:28;6.20;;;3.37;;
3769;SDS011;1900;48.890;9.190;2023-12-20T07:55:55;3.70;;;2.50;;
3769;SDS011;1900;48.890;9.190;2023-12-20T07:58:21;2.60;;;2.40;;
3769;SDS011;1900;48.890;9.190;2023-12-20T08:00:47;3.40;;;2.97;;
3769;SDS011;1900;48.890;9.190;2023-12-20T08:03:13;3.43;;;3.13;;
3769;SDS011;1900;48.890;9.190;2023-12-20T08:05:38;3.63;;;2.97;;
3769;SDS011;1900;48.890;9.190;2023-12-20T08:08:07;3.70;;;2.70;;
3769;SDS011;1900;48.890;9.190;2023-12-20T08:10:33;4.30;;;2.93;;
3769;SDS011;1900;48.890;9.190;2023-12-20T08:13:00;4.93;;;4.33;;
3769;SDS011;1900;48.890;9.190;2023-12-20T08:15:26;5.10;;;4.60;;
3769;SDS011;1900;48.890;9.190;2023-12-20T08:17:52;4.83;;;3.30;;
3769;SDS011;1900;48.890;9.190;2023-12-20T08:20:18;5.27;;;3.50;;
3769;SDS011;1900;48.890;9.190;2023-12-20T08:22:44;9.43;;;6.53;;
3769;SDS011;1900;48.890;9.190;2023-12-20T08:25:10;3.33;;;3.00;;
3769;SDS011;1900;48.890;9.190;2023-12-20T08:27:41;3.93;;;3.47;;
3769;SDS011;1900;48.890;9.190;2023-12-20T08:30:10;3.90;;;3.10;;
3769;SDS011;1900;48.890;9.190;2023-12-20T08:32:36;3.00;;;2.70;;
3769;SDS011;1900;48.890;9.190;2023-12-20T08:35:01;3.03;;;2.73;;
3769;SDS011;1900;48.890;9.190;2023-12-20T08:37:27;3.93;;;3.03;;
3769;SDS011;1900;48.890;9.190;2023-12-20T08:39:55;6.53;;;2.97;;
3769;SDS011;1900;48.890;9.190;2023-12-20T08:42:21;7.90;;;3.43;;
3769;SDS011;1900;48.890;9.190;2023-12-20T08:44:46;5.33;;;3.20;;
3769;SDS011;1900;48.890;9.190;2023-12-20T08:47:12;4.33;;;3.00;;
3769;SDS011;1900;48.890;9.190;2023-12-20T08:49:40;3.93;;;3.53;;
3769;SDS011;1900;48.890;9.190;2023-12-20T08:52:06;3.30;;;3.00;;
3769;SDS011;1900;48.890;9.190;2023-12-20T08:54:32;3.83;;;3.13;;
3769;SDS011;1900;48.890;9.190;2023-12-20T08:56:58;3.50;;;3.20;;
3769;SDS011;1900;48.890;9.190;2023-12-20T08:59:24;5.20;;;2.87;;
3769;SDS011;1900;48.890;9.190;2023-12-20T09:01:50;5.13;;;3.27;;
3769;SDS011;1900;48.890;9.190;2023-12-20T09:04:20;5.20;;;3.57;;
3769;SDS011;1900;48.890;9.190;2023-12-20T09:06:45;5.37;;;3.33;;
3769;SDS011;1900;48.890;9.190;2023-12-20T09:09:11;4.10;;;3.43;;
3769;SDS011;1900;48.890;9.190;2023-12-20T09:11:40;7.30;;;3.70;;
3769;SDS011;1900;48.890;9.190;2023-12-20T09:14:07;6.60;;;3.83;;
3769;SDS011;1900;48.890;9.190;2023-12-20T09:16:33;3.27;;;2.97;;
3769;SDS011;1900;48.890;9.190;2023-12-20T09:18:59;4.10;;;3.63;;
3769;SDS011;1900;48.890;9.190;2023-12-20T09:21:25;4.23;;;3.00;;
3769;SDS011;1900;48.890;9.190;2023-12-20T09:23:50;3.33;;;3.03;;
3769;SDS011;1900;48.890;9.190;2023-12-20T09:26:16;7.17;;;4.33;;
3769;SDS011;1900;48.890;9.190;2023-12-20T09:28:43;4.00;;;3.00;;
3769;SDS011;1900;48.890;9.190;2023-12-20T09:31:09;5.37;;;2.93;;
3769;SDS011;1900;48.890;9.190;2023-12-20T09:33:35;6.33;;;3.00;;
3769;SDS011;1900;48.890;9.190;2023-12-20T09:36:00;3.20;;;2.53;;
3769;SDS011;1900;48.890;9.190;2023-12-20T09:38:26;5.70;;;2.47;;
3769;SDS011;1900;48.890;9.190;2023-12-20T09:40:55;5.10;;;2.43;;
3769;SDS011;1900;48.890;9.190;2023-12-20T09:43:21;3.93;;;2.50;;
3769;SDS011;1900;48.890;9.190;2023-12-20T09:45:49;4.93;;;2.20;;
3769;SDS011;1900;48.890;9.190;2023-12-20T09:48:18;4.83;;;2.43;;
3769;SDS011;1900;48.890;9.190;2023-12-20T09:50:45;2.70;;;2.23;;
3769;SDS011;1900;48.890;9.190;2023-12-20T09:53:11;4.17;;;2.60;;
3769;SDS011;1900;48.890;9.190;2023-12-20T09:55:41;5.90;;;2.10;;
3769;SDS011;1900;48.890;9.190;2023-12-20T09:58:07;7.80;;;2.67;;
3769;SDS011;1900;48.890;9.190;2023-12-20T10:00:36;9.03;;;2.10;;
3769;SDS011;1900;48.890;9.190;2023-12-20T10:03:03;5.37;;;2.33;;
3769;SDS011;1900;48.890;9.190;2023-12-20T10:05:31;3.47;;;2.00;;
3769;SDS011;1900;48.890;9.190;2023-12-20T10:07:58;3.37;;;2.10;;
3769;SDS011;1900;48.890;9.190;2023-12-20T10:10:25;6.33;;;3.30;;
3769;SDS011;1900;48.890;9.190;2023-12-20T10:13:01;5.90;;;2.70;;
3769;SDS011;1900;48.890;9.190;2023-12-20T10:15:33;4.93;;;2.80;;
3769;SDS011;1900;48.890;9.190;2023-12-20T10:18:00;2.77;;;2.10;;
3769;SDS011;1900;48.890;9.190;2023-12-20T10:20:27;3.30;;;2.40;;
3769;SDS011;1900;48.890;9.190;2023-12-20T10:22:54;5.07;;;2.20;;
3769;SDS011;1900;48.890;9.190;2023-12-20T10:25:21;13.33;;;2.40;;
3769;SDS011;1900;48.890;9.190;2023-12-20T10:27:47;7.30;;;2.47;;
3769;SDS011;1900;48.890;9.190;2023-12-20T10:30:13;9.13;;;2.67;;
3769;SDS011;1900;48.890;9.190;2023-12-20T10:32:39;5.67;;;2.43;;
3769;SDS011;1900;48.890;9.190;2023-12-20T10:35:06;4.40;;;2.50;;
3769;SDS011;1900;48.890;9.190;2023-12-20T10:37:35;6.47;;;3.50;;
3769;SDS011;1900;48.890;9.190;2023-12-20T10:40:03;5.13;;;2.70;;
3769;SDS011;1900;48.890;9.190;2023-12-20T10:42:31;7.67;;;2.43;;
3769;SDS011;1900;48.890;9.190;2023-12-20T10:44:59;4.20;;;2.30;;
3769;SDS011;1900;48.890;9.190;2023-12-20T10:47:25;3.97;;;2.10;;
3769;SDS011;1900;48.890;9.190;2023-12-20T10:49:54;13.20;;;2.30;;
3769;SDS011;1900;48.890;9.190;2023-12-20T10:52:22;7.27;;;2.70;;
3769;SDS011;1900;48.890;9.190;2023-12-20T10:54:49;4.80;;;2.67;;
3769;SDS011;1900;48.890;9.190;2023-12-20T10:57:16;5.23;;;2.27;;
3769;SDS011;1900;48.890;9.190;2023-12-20T10:59:43;2.83;;;2.60;;
3769;SDS011;1900;48.890;9.190;2023-12-20T11:02:12;4.60;;;2.10;;
3769;SDS011;1900;48.890;9.190;2023-12-20T11:04:47;8.23;;;2.33;;
3769;SDS011;1900;48.890;9.190;2023-12-20T11:07:25;5.90;;;2.33;;
3769;SDS011;1900;48.890;9.190;2023-12-20T11:09:58;5.27;;;2.50;;
3769;SDS011;1900;48.890;9.190;2023-12-20T11:12:43;3.57;;;2.03;;
3769;SDS011;1900;48.890;9.190;2023-12-20T11:15:14;9.33;;;2.50;;
3769;SDS011;1900;48.890;9.190;2023-12-20T11:17:42;4.10;;;2.10;;
3769;SDS011;1900;48.890;9.190;2023-12-20T11:20:11;6.07;;;2.70;;
3769;SDS011;1900;48.890;9.190;2023-12-20T11:22:37;8.10;;;2.03;;
3769;SDS011;1900;48.890;9.190;2023-12-20T11:25:10;6.37;;;2.30;;
3769;SDS011;1900;48.890;9.190;2023-12-20T11:27:37;4.83;;;2.23;;
3769;SDS011;1900;48.890;9.190;2023-12-20T11:30:06;5.43;;;2.50;;
3769;SDS011;1900;48.890;9.190;2023-12-20T11:32:37;16.00;;;2.50;;
3769;SDS011;1900;48.890;9.190;2023-12-20T11:37:36;4.40;;;2.20;;
3769;SDS011;1900;48.890;9.190;2023-12-20T11:40:05;7.20;;;2.40;;
3769;SDS011;1900;48.890;9.190;2023-12-20T11:42:50;6.23;;;2.90;;
3769;SDS011;1900;48.890;9.190;2023-12-20T11:45:17;9.40;;;3.13;;
3769;SDS011;1900;48.890;9.190;2023-12-20T11:47:48;6.37;;;2.43;;
3769;SDS011;1900;48.890;9.190;2023-12-20T11:50:20;10.87;;;2.57;;
3769;SDS011;1900;48.890;9.190;2023-12-20T11:52:48;5.10;;;2.47;;
3769;SDS011;1900;48.890;9.190;2023-12-20T11:55:14;8.17;;;3.30;;
3769;SDS011;1900;48.890;9.190;2023-12-20T11:57:40;7.00;;;3.77;;
3769;SDS011;1900;48.890;9.190;2023-12-20T12:00:06;14.23;;;3.40;;
3769;SDS011;1900;48.890;9.190;2023-12-20T12:02:39;7.83;;;3.00;;
3769;SDS011;1900;48.890;9.190;2023-12-20T12:05:05;11.07;;;3.50;;
3769;SDS011;1900;48.890;9.190;2023-12-20T12:07:32;6.27;;;3.07;;
3769;SDS011;1900;48.890;9.190;2023-12-20T12:09:58;4.87;;;2.87;;
3769;SDS011;1900;48.890;9.190;2023-12-20T12:12:24;14.27;;;3.60;;
3769;SDS011;1900;48.890;9.190;2023-12-20T12:14:54;5.33;;;2.60;;
3769;SDS011;1900;48.890;9.190;2023-12-20T12:17:21;7.80;;;3.30;;
3769;SDS011;1900;48.890;9.190;2023-12-20T12:19:47;5.03;;;2.40;;
3769;SDS011;1900;48.890;9.190;2023-12-20T12:22:14;9.00;;;2.80;;
3769;SDS011;1900;48.890;9.190;2023-12-20T12:24:42;7.70;;;2.80;;
3769;SDS011;1900;48.890;9.190;2023-12-20T12:27:09;10.60;;;2.47;;
3769;SDS011;1900;48.890;9.190;2023-12-20T12:29:35;10.47;;;2.80;;
3769;SDS011;1900;48.890;9.190;2023-12-20T12:32:05;5.23;;;2.30;;
3769;SDS011;1900;48.890;9.190;2023-12-20T12:34:32;9.00;;;2.53;;
3769;SDS011;1900;48.890;9.190;2023-12-20T12:37:02;8.17;;;4.07;;
3769;SDS011;1900;48.890;9.190;2023-12-20T12:39:30;18.03;;;7.00;;
3769;SDS011;1900;48.890;9.190;2023-12-20T12:41:56;8.00;;;3.97;;
3769;SDS011;1900;48.890;9.190;2023-12-20T12:44:22;5.20;;;2.67;;
3769;SDS011;1900;48.890;9.190;2023-12-20T12:46:52;4.57;;;2.40;;
3769;SDS011;1900;48.890;9.190;2023-12-20T12:49:21;5.27;;;3.10;;
3769;SDS011;1900;48.890;9.190;2023-12-20T12:51:48;10.63;;;3.30;;
3769;SDS011;1900;48.890;9.190;2023-12-20T12:54:14;9.53;;;2.80;;
3769;SDS011;1900;48.890;9.190;2023-12-20T12:56:42;9.80;;;4.27;;
3769;SDS011;1900;48.890;9.190;2023-12-20T12:59:08;5.17;;;2.43;;
3769;SDS011;1900;48.890;9.190;2023-12-20T13:01:34;11.73;;;2.93;;
3769;SDS011;1900;48.890;9.190;2023-12-20T13:04:00;7.03;;;2.90;;
3769;SDS011;1900;48.890;9.190;2023-12-20T13:06:29;11.87;;;2.83;;
3769;SDS011;1900;48.890;9.190;2023-12-20T13:08:55;5.50;;;2.63;;
3769;SDS011;1900;48.890;9.190;2023-12-20T13:11:21;6.30;;;2.37;;
3769;SDS011;1900;48.890;9.190;2023-12-20T13:13:46;3.50;;;1.90;;
3769;SDS011;1900;48.890;9.190;2023-12-20T13:16:13;7.00;;;3.00;;
3769;SDS011;1900;48.890;9.190;2023-12-20T13:18:39;3.80;;;2.10;;
3769;SDS011;1900;48.890;9.190;2023-12-20T13:21:07;13.77;;;2.77;;
3769;SDS011;1900;48.890;9.190;2023-12-20T13:23:34;10.77;;;2.70;;
3769;SDS011;1900;48.890;9.190;2023-12-20T13:25:59;4.63;;;2.13;;
3769;SDS011;1900;48.890;9.190;2023-12-20T13:28:25;4.23;;;2.53;;
3769;SDS011;1900;48.890;9.190;2023-12-20T13:30:51;7.60;;;2.80;;
3769;SDS011;1900;48.890;9.190;2023-12-20T13:33:17;7.53;;;3.50;;
3769;SDS011;1900;48.890;9.190;2023-12-20T13:35:43;4.80;;;2.80;;
3769;SDS011;1900;48.890;9.190;2023-12-20T13:38:08;3.70;;;2.40;;
3769;SDS011;1900;48.890;9.190;2023-12-20T13:40:35;7.20;;;2.30;;
3769;SDS011;1900;48.890;9.190;2023-12-20T13:43:00;8.30;;;2.40;;
3769;SDS011;1900;48.890;9.190;2023-12-20T13:45:28;9.90;;;2.63;;
3769;SDS011;1900;48.890;9.190;2023-12-20T13:47:54;11.30;;;2.67;;
3769;SDS011;1900;48.890;9.190;2023-12-20T13:50:19;7.57;;;3.10;;
3769;SDS011;1900;48.890;9.190;2023-12-20T13:52:46;10.47;;;2.97;;
3769;SDS011;1900;48.890;9.190;2023-12-20T13:55:13;7.20;;;3.13;;
3769;SDS011;1900;48.890;9.190;2023-12-20T13:57:39;13.27;;;3.20;;
3769;SDS011;1900;48.890;9.190;2023-12-20T14:00:06;5.83;;;3.03;;
3769;SDS011;1900;48.890;9.190;2023-12-20T14:02:41;6.80;;;3.97;;
3769;SDS011;1900;48.890;9.190;2023-12-20T14:05:08;12.73;;;3.20;;
3769;SDS011;1900;48.890;9.190;2023-12-20T14:07:35;7.83;;;2.87;;
3769;SDS011;1900;48.890;9.190;2023-12-20T14:10:01;7.17;;;3.17;;
3769;SDS011;1900;48.890;9.190;2023-12-20T14:12:27;5.67;;;2.57;;
3769;SDS011;1900;48.890;9.190;2023-12-20T14:15:15;8.77;;;3.10;;
3769;SDS011;1900;48.890;9.190;2023-12-20T14:17:41;6.60;;;2.90;;
3769;SDS011;1900;48.890;9.190;2023-12-20T14:20:09;3.93;;;2.53;;
3769;SDS011;1900;48.890;9.190;2023-12-20T14:22:38;9.10;;;2.87;;
3769;SDS011;1900;48.890;9.190;2023-12-20T14:25:12;9.00;;;2.70;;
3769;SDS011;1900;48.890;9.190;2023-12-20T14:27:39;6.80;;;2.57;;
3769;SDS011;1900;48.890;9.190;2023-12-20T14:30:08;6.17;;;2.60;;
3769;SDS011;1900;48.890;9.190;2023-12-20T14:32:35;4.70;;;2.30;;
3769;SDS011;1900;48.890;9.190;2023-12-20T14:35:07;7.50;;;2.60;;
3769;SDS011;1900;48.890;9.190;2023-12-20T14:37:34;9.67;;;4.70;;
3769;SDS011;1900;48.890;9.190;2023-12-20T14:40:04;8.30;;;2.80;;
3769;SDS011;1900;48.890;9.190;2023-12-20T14:42:31;7.20;;;3.00;;
3769;SDS011;1900;48.890;9.190;2023-12-20T14:44:57;11.57;;;4.50;;
3769;SDS011;1900;48.890;9.190;2023-12-20T14:47:23;5.97;;;2.43;;
3769;SDS011;1900;48.890;9.190;2023-12-20T14:49:50;10.90;;;3.20;;
3769;SDS011;1900;48.890;9.190;2023-12-20T14:52:17;7.57;;;2.50;;
3769;SDS011;1900;48.890;9.190;2023-12-20T14:54:44;7.63;;;2.50;;
3769;SDS011;1900;48.890;9.190;2023-12-20T14:57:10;7.07;;;2.33;;
3769;SDS011;1900;48.890;9.190;2023-12-20T14:59:36;7.10;;;2.83;;
3769;SDS011;1900;48.890;9.190;2023-12-20T15:02:01;7.60;;;2.43;;
3769;SDS011;1900;48.890;9.190;2023-12-20T15:04:30;5.77;;;2.07;;
3769;SDS011;1900;48.890;9.190;2023-12-20T15:07:21;8.67;;;2.70;;
3769;SDS011;1900;48.890;9.190;2023-12-20T15:09:46;5.20;;;2.80;;
3769;SDS011;1900;48.890;9.190;2023-12-20T15:12:13;5.83;;;2.63;;
3769;SDS011;1900;48.890;9.190;2023-12-20T15:14:39;11.20;;;3.27;;